Time;durP1;ratioP1;P1;durP2;ratioP2;P2;SDS_P1;SDS_P2;PMS_P1;PMS_P2;Temp;Humidity;BMP_temperature;BMP_pressure;BME280_temperature;BME280_humidity;BME280_pressure;Samples;Min_cycle;Max_cycle;Signal;HPM_P1;HPM_P2
2023/09/06 05:21:43;;;;;;;;;17.00;17.00;;;;;31.65;39.95;101247.88;5060014;27;1605339;-56
2023/09/06 05:24:08;;;;;;;;;16.50;15.00;;;;;32.05;39.52;101251.09;5096314;27;45386;-58
2023/09/06 05:26:33;;;;;;;;;16.50;15.25;;;;;32.38;38.60;101251.44;5098020;27;45485;-57
2023/09/06 05:28:59;;;;;;;;;21.50;18.00;;;;;32.61;38.48;101244.56;5114963;27;45317;-57
2023/09/06 05:31:24;;;;;;;;;14.00;14.00;;;;;32.78;38.20;101249.84;5111608;27;46470;-58
2023/09/06 05:33:50;;;;;;;;;20.25;17.75;;;;;32.90;37.61;101253.78;5116374;27;45425;-58
2023/09/06 05:36:15;;;;;;;;;21.75;20.50;;;;;32.95;37.61;101249.31;5116254;27;45437;-59
2023/09/06 05:38:40;;;;;;;;;16.00;16.00;;;;;33.02;37.70;101249.34;5116473;27;57619;-58
2023/09/06 05:41:05;;;;;;;;;15.75;13.50;;;;;33.14;37.16;101249.63;5116170;27;45224;-58
2023/09/06 05:43:31;;;;;;;;;17.75;14.00;;;;;33.21;36.88;101251.41;5116938;27;45397;-59
2023/09/06 05:45:56;;;;;;;;;14.25;14.25;;;;;33.26;37.47;101248.88;5120289;27;45835;-58
2023/09/06 05:48:22;;;;;;;;;16.50;16.50;;;;;33.32;36.59;101261.09;5093959;27;45702;-59
2023/09/06 05:50:47;;;;;;;;;16.75;15.75;;;;;33.42;36.95;101256.03;5094759;27;45298;-58
2023/09/06 05:53:12;;;;;;;;;17.50;15.75;;;;;33.51;36.81;101263.13;5105094;27;45298;-58
2023/09/06 05:55:38;;;;;;;;;15.50;15.50;;;;;33.53;36.55;101260.97;5098402;27;45215;-58
2023/09/06 05:58:03;;;;;;;;;19.00;17.75;;;;;33.53;36.78;101266.53;5105649;27;45267;-59
2023/09/06 06:00:30;;;;;;;;;17.50;17.00;;;;;33.37;36.62;101273.31;5115891;27;46110;-58
2023/09/06 06:02:57;;;;;;;;;18.25;18.25;;;;;33.28;37.08;101266.19;5115380;27;45365;-58
2023/09/06 06:05:24;;;;;;;;;17.00;15.50;;;;;33.20;37.19;101268.25;5114509;27;45297;-58
2023/09/06 06:07:49;;;;;;;;;20.50;17.50;;;;;33.17;37.40;101266.78;5115290;27;45417;-58
2023/09/06 06:10:15;;;;;;;;;20.25;17.00;;;;;33.20;37.12;101271.03;5115238;27;45964;-58
2023/09/06 06:12:41;;;;;;;;;24.25;20.00;;;;;33.10;37.77;101270.53;5108566;27;45244;-59
2023/09/06 06:15:13;;;;;;;;;20.50;17.75;;;;;33.08;37.54;101269.91;5099830;27;45284;-58
2023/09/06 06:17:39;;;;;;;;;21.00;21.00;;;;;33.12;37.81;101277.63;5095348;27;45210;-56
2023/09/06 06:20:07;;;;;;;;;26.25;19.50;;;;;33.14;37.54;101280.19;5101773;27;46320;-58
2023/09/06 06:22:37;;;;;;;;;15.50;15.50;;;;;33.26;37.96;101279.44;5080366;27;45300;-57
2023/09/06 06:25:07;;;;;;;;;27.00;22.75;;;;;33.32;37.08;101275.84;5083864;27;45913;-57
2023/09/06 06:27:32;;;;;;;;;21.75;21.75;;;;;33.36;36.79;101284.63;5087515;27;45299;-58
2023/09/06 06:29:57;;;;;;;;;17.50;17.50;;;;;33.42;37.07;101287.47;5101260;27;46454;-58
2023/09/06 06:32:23;;;;;;;;;21.00;18.25;;;;;33.51;36.77;101288.13;5101762;27;45264;-58
2023/09/06 06:34:50;;;;;;;;;21.00;21.00;;;;;33.50;36.61;101280.84;5102052;27;45456;-57
2023/09/06 06:37:16;;;;;;;;;19.75;15.00;;;;;33.48;37.07;101282.13;5101661;27;45350;-58
2023/09/06 06:39:41;;;;;;;;;20.75;20.75;;;;;33.57;36.67;101294.78;5101694;27;45354;-58
2023/09/06 06:42:07;;;;;;;;;25.50;21.25;;;;;33.72;36.52;101292.69;5101115;27;45306;-58
2023/09/06 06:44:32;;;;;;;;;24.25;22.50;;;;;33.62;36.66;101300.56;5101936;27;45307;-57
2023/09/06 06:46:59;;;;;;;;;21.25;19.50;;;;;33.64;36.27;101304.88;5088099;27;45499;-59
2023/09/06 06:49:25;;;;;;;;;20.75;20.25;;;;;33.62;36.35;101286.66;5081293;28;46921;-58
2023/09/06 06:51:50;;;;;;;;;21.25;21.00;;;;;33.69;36.31;101295.88;5084916;27;45225;-59
2023/09/06 06:54:15;;;;;;;;;23.50;21.25;;;;;33.58;36.88;101291.81;5101876;27;45233;-59
2023/09/06 06:56:41;;;;;;;;;22.75;19.25;;;;;33.61;36.71;101288.59;5100739;27;45383;-58
2023/09/06 06:59:08;;;;;;;;;21.00;17.75;;;;;33.59;36.78;101292.66;5104704;27;46256;-59
2023/09/06 07:01:34;;;;;;;;;16.50;16.50;;;;;33.62;37.10;101290.31;5080826;27;45177;-58
2023/09/06 07:04:00;;;;;;;;;17.50;17.50;;;;;33.76;36.55;101288.47;5080973;28;45237;-58
2023/09/06 07:06:26;;;;;;;;;13.25;13.25;;;;;33.86;36.47;101291.69;5080984;28;45308;-58
2023/09/06 07:08:53;;;;;;;;;17.75;16.75;;;;;33.92;36.21;101293.66;5080864;27;46142;-58
2023/09/06 07:11:19;;;;;;;;;22.75;19.50;;;;;33.95;36.24;101303.50;5079561;27;45341;-58
2023/09/06 07:13:48;;;;;;;;;19.50;17.75;;;;;34.08;36.11;101306.31;5081907;27;45316;-58
2023/09/06 07:16:19;;;;;;;;;19.25;19.25;;;;;34.22;35.58;101302.47;5101274;27;45434;-59
2023/09/06 07:18:45;;;;;;;;;23.50;18.50;;;;;34.25;35.70;101306.81;5101942;27;45385;-58
2023/09/06 07:21:11;;;;;;;;;20.50;19.00;;;;;34.40;35.53;101307.47;5090919;27;45300;-58
2023/09/06 07:23:37;;;;;;;;;16.75;16.75;;;;;34.42;35.51;101311.75;5080644;28;45238;-58
2023/09/06 07:26:04;;;;;;;;;20.75;19.00;;;;;34.47;35.37;101311.09;5079592;27;45307;-58
2023/09/06 07:28:43;;;;;;;;;14.25;13.25;;;;;34.46;35.17;101309.38;5076113;27;45328;-59
2023/09/06 07:31:09;;;;;;;;;9.50;9.50;;;;;34.42;34.57;101302.56;5080409;28;45389;-59
2023/09/06 07:33:35;;;;;;;;;14.00;14.00;;;;;34.48;35.13;101315.59;5079523;27;45378;-58
2023/09/06 07:36:01;;;;;;;;;12.75;12.00;;;;;34.48;35.28;101318.41;5080221;27;45826;-59
2023/09/06 07:38:26;;;;;;;;;8.50;8.25;;;;;34.58;34.82;101304.91;5092746;27;45871;-59
2023/09/06 07:41:07;;;;;;;;;13.00;11.50;;;;;34.72;34.82;101314.97;5080065;27;45301;-58
2023/09/06 07:43:34;;;;;;;;;8.75;8.50;;;;;34.75;33.86;101314.59;5069002;27;45390;-58
2023/09/06 07:46:01;;;;;;;;;9.25;9.25;;;;;34.76;34.31;101319.09;5100626;27;45480;-58
2023/09/06 07:48:28;;;;;;;;;12.50;9.75;;;;;34.75;34.29;101320.16;5100383;27;45300;-59
2023/09/06 07:50:54;;;;;;;;;9.00;9.00;;;;;34.78;34.61;101313.31;5100303;27;45200;-58
2023/09/06 07:53:20;;;;;;;;;8.50;8.00;;;;;34.85;34.27;101320.59;5100867;27;45160;-59
2023/09/06 07:55:46;;;;;;;;;8.50;8.50;;;;;34.94;34.71;101323.16;5100156;27;46127;-58
2023/09/06 07:58:14;;;;;;;;;8.25;8.00;;;;;35.00;33.99;101327.84;5100327;27;45342;-58
2023/09/06 08:00:43;;;;;;;;;7.75;7.75;;;;;35.10;33.61;101328.25;5100521;27;45354;-58
2023/09/06 08:03:09;;;;;;;;;10.00;9.25;;;;;35.15;33.52;101323.75;5092767;27;45493;-58
2023/09/06 08:05:37;;;;;;;;;11.75;10.75;;;;;35.26;33.59;101331.47;5082602;27;45566;-59
2023/09/06 08:08:05;;;;;;;;;9.00;7.00;;;;;35.28;33.57;101334.06;5078736;28;46248;-58
2023/09/06 08:10:31;;;;;;;;;11.00;9.25;;;;;35.34;33.31;101333.16;5086045;27;45470;-58
2023/09/06 08:12:57;;;;;;;;;16.25;12.00;;;;;35.43;33.59;101329.06;5087404;27;45331;-58
2023/09/06 08:15:23;;;;;;;;;10.00;10.00;;;;;35.50;33.44;101337.41;5084523;27;45229;-59
2023/09/06 08:17:48;;;;;;;;;8.25;8.25;;;;;35.57;33.56;101339.09;5078956;27;45417;-59
2023/09/06 08:20:15;;;;;;;;;8.50;8.50;;;;;35.61;33.71;101337.59;5092354;27;45457;-59
2023/09/06 08:22:42;;;;;;;;;10.00;10.00;;;;;35.59;33.60;101344.44;5081022;27;45383;-60
2023/09/06 08:25:07;;;;;;;;;10.00;10.00;;;;;35.60;32.94;101337.81;5077797;28;45367;-57
2023/09/06 08:27:33;;;;;;;;;7.50;7.50;;;;;35.65;32.58;101332.41;5087558;27;46968;-58
2023/09/06 08:29:58;;;;;;;;;8.00;8.00;;;;;35.69;32.57;101330.91;5079233;28;45344;-59
2023/09/06 08:32:24;;;;;;;;;10.00;8.75;;;;;35.73;32.52;101332.19;5084495;27;45534;-59
2023/09/06 08:34:49;;;;;;;;;10.50;10.50;;;;;35.78;32.97;101334.34;5086695;27;45477;-58
2023/09/06 08:37:14;;;;;;;;;10.00;6.00;;;;;35.81;32.67;101342.28;5090434;27;60713;-58
2023/09/06 08:39:40;;;;;;;;;12.75;10.25;;;;;35.80;32.24;101341.41;5079415;27;45385;-58
2023/09/06 08:42:06;;;;;;;;;9.75;9.75;;;;;35.87;32.33;101338.59;5078216;28;45611;-59
2023/09/06 08:44:32;;;;;;;;;9.75;9.75;;;;;35.85;32.47;101346.31;5078929;28;45477;-58
2023/09/06 08:47:01;;;;;;;;;10.50;10.50;;;;;35.91;32.50;101337.91;5079171;28;46286;-59
2023/09/06 08:49:27;;;;;;;;;15.25;11.50;;;;;35.95;32.52;101343.91;5079052;27;45590;-58
2023/09/06 08:51:55;;;;;;;;;13.50;10.25;;;;;36.01;32.76;101345.81;5079560;28;45349;-59
2023/09/06 08:54:23;;;;;;;;;14.75;13.75;;;;;36.05;32.53;101344.28;5079145;27;45509;-58
2023/09/06 08:56:50;;;;;;;;;12.75;11.25;;;;;36.17;32.52;101342.47;5077976;28;45323;-59
2023/09/06 08:59:18;;;;;;;;;11.25;11.25;;;;;36.23;32.27;101338.84;5079038;28;45331;-58
2023/09/06 09:01:43;;;;;;;;;8.75;8.75;;;;;36.30;32.44;101341.59;5079357;28;45329;-58
2023/09/06 09:04:09;;;;;;;;;11.25;11.25;;;;;36.39;32.63;101337.44;5078822;28;45389;-58
2023/09/06 09:06:34;;;;;;;;;11.75;10.25;;;;;36.41;32.36;101340.03;5087292;27;45421;-58
2023/09/06 09:09:17;;;;;;;;;16.00;13.00;;;;;36.39;32.25;101338.31;5080634;27;45352;-58
2023/09/06 09:11:51;;;;;;;;;13.00;12.50;;;;;36.48;32.09;101346.41;5078079;27;45237;-58
2023/09/06 09:14:22;;;;;;;;;11.50;11.50;;;;;36.44;32.03;101331.16;5085433;27;46297;-59
2023/09/06 09:16:57;;;;;;;;;12.50;10.75;;;;;36.56;32.04;101337.75;5099184;27;46497;-59
2023/09/06 09:19:23;;;;;;;;;10.75;10.75;;;;;36.52;32.55;101328.94;5073124;28;45494;-60
2023/09/06 09:21:52;;;;;;;;;14.25;13.50;;;;;36.52;32.11;101328.09;5078134;27;45487;-58
2023/09/06 09:24:28;;;;;;;;;18.25;12.75;;;;;36.63;32.02;101332.97;5078857;28;45335;-59
2023/09/06 09:26:56;;;;;;;;;13.50;13.50;;;;;36.69;32.07;101326.50;5077282;28;45378;-59
2023/09/06 09:29:22;;;;;;;;;12.25;12.25;;;;;36.71;31.66;101327.13;5077844;28;45300;-59
2023/09/06 09:31:47;;;;;;;;;14.00;14.00;;;;;36.76;31.94;101328.13;5078751;28;45283;-59
2023/09/06 09:34:13;;;;;;;;;12.25;12.25;;;;;36.83;31.73;101330.03;5078894;28;45513;-58
2023/09/06 09:36:39;;;;;;;;;15.75;14.00;;;;;36.85;31.14;101331.50;5078728;28;46013;-59
2023/09/06 09:39:08;;;;;;;;;11.00;11.00;;;;;36.89;31.48;101323.53;5078705;28;45357;-59
2023/09/06 09:41:35;;;;;;;;;10.25;9.00;;;;;36.96;31.57;101333.56;5078344;27;45358;-58
2023/09/06 09:44:19;;;;;;;;;11.75;10.50;;;;;36.92;31.19;101335.09;5077549;28;45493;-59
2023/09/06 09:46:45;;;;;;;;;13.25;13.25;;;;;37.07;31.25;101330.00;5078506;28;46324;-59
2023/09/06 09:49:12;;;;;;;;;12.25;12.25;;;;;37.07;30.84;101335.59;5078355;28;45357;-59
2023/09/06 09:51:39;;;;;;;;;12.00;10.75;;;;;37.08;31.74;101331.72;5078642;28;45189;-58
2023/09/06 09:54:05;;;;;;;;;13.50;12.25;;;;;37.13;31.47;101336.59;5078214;28;45240;-58
2023/09/06 09:56:33;;;;;;;;;10.75;9.25;;;;;37.15;30.96;101330.81;5079167;28;45546;-59
2023/09/06 09:59:01;;;;;;;;;16.00;13.25;;;;;37.23;30.64;101333.31;5080879;27;45381;-57
2023/09/06 10:01:31;;;;;;;;;11.50;10.00;;;;;37.30;30.38;101328.50;5081940;28;44779;-61
2023/09/06 10:04:00;;;;;;;;;9.50;9.25;;;;;37.28;30.49;101327.88;5081791;27;45363;-58
2023/09/06 10:06:27;;;;;;;;;10.75;8.75;;;;;37.43;30.22;101322.78;5081920;27;46198;-59
2023/09/06 10:08:58;;;;;;;;;9.00;9.00;;;;;37.52;29.83;101318.53;5081551;27;45195;-59
2023/09/06 10:11:25;;;;;;;;;9.75;9.00;;;;;37.44;30.10;101325.31;5081406;27;45277;-58
2023/09/06 10:13:52;;;;;;;;;11.25;11.25;;;;;37.50;30.30;101312.34;5084651;27;45391;-59
2023/09/06 10:16:18;;;;;;;;;11.50;11.50;;;;;37.48;29.56;101325.72;5102036;27;45614;-58
2023/09/06 10:18:44;;;;;;;;;12.25;10.00;;;;;37.44;29.89;101318.84;5102811;27;45311;-58
2023/09/06 10:21:11;;;;;;;;;12.00;9.25;;;;;37.55;30.18;101318.09;5091862;27;45258;-59
2023/09/06 10:23:46;;;;;;;;;11.50;10.50;;;;;37.64;30.01;101307.47;5094657;27;45409;-58
2023/09/06 10:26:11;;;;;;;;;9.25;9.25;;;;;37.79;29.90;101317.16;5101901;27;45324;-57
2023/09/06 10:28:36;;;;;;;;;8.75;8.75;;;;;37.78;29.85;101309.00;5101883;27;45340;-58
2023/09/06 10:31:08;;;;;;;;;8.00;8.00;;;;;37.79;29.63;101319.09;5102253;27;45469;-59
2023/09/06 10:33:36;;;;;;;;;10.50;10.25;;;;;37.93;29.39;101312.25;5101202;27;45407;-60
2023/09/06 10:36:19;;;;;;;;;10.00;10.00;;;;;37.98;29.38;101312.38;5094793;27;45454;-58
2023/09/06 10:38:51;;;;;;;;;12.50;9.50;;;;;37.98;29.03;101305.91;5069396;27;45261;-59
2023/09/06 10:41:18;;;;;;;;;9.75;8.50;;;;;37.97;29.04;101302.28;5090164;27;45252;-58
2023/09/06 10:43:59;;;;;;;;;13.00;9.00;;;;;37.93;28.96;101303.84;5087564;27;45867;-59
2023/09/06 10:46:26;;;;;;;;;12.25;10.00;;;;;38.04;28.95;101294.63;5101338;27;45334;-58
2023/09/06 10:49:23;;;;;;;;;8.75;7.75;;;;;38.05;28.76;101295.47;5101666;27;45287;-58
2023/09/06 10:52:01;;;;;;;;;10.25;8.25;;;;;38.18;28.93;101298.13;5101812;27;45182;-58
2023/09/06 10:54:37;;;;;;;;;10.75;10.00;;;;;38.13;28.96;101286.78;5068533;27;45543;-58
2023/09/06 10:57:05;;;;;;;;;12.00;10.25;;;;;38.17;28.62;101288.88;5100861;27;46174;-61
2023/09/06 10:59:32;;;;;;;;;8.25;8.25;;;;;38.32;28.80;101294.00;5101337;27;45475;-57
2023/09/06 11:02:09;;;;;;;;;9.50;8.50;;;;;38.43;28.70;101289.53;5101428;27;45256;-58
2023/09/06 11:04:34;;;;;;;;;8.75;8.75;;;;;38.52;28.42;101288.97;5100973;27;45473;-58
2023/09/06 11:07:10;;;;;;;;;12.25;12.25;;;;;38.64;28.96;101282.50;5101283;27;45905;-57
2023/09/06 11:09:44;;;;;;;;;8.25;8.25;;;;;38.66;27.93;101278.38;5101290;27;45231;-59
2023/09/06 11:12:13;;;;;;;;;9.25;9.25;;;;;38.71;27.89;101288.88;5098511;27;45283;-59
2023/09/06 11:14:40;;;;;;;;;9.50;8.75;;;;;38.76;28.12;101283.38;5080761;28;45330;-59
2023/09/06 11:17:06;;;;;;;;;11.75;7.50;;;;;38.83;27.95;101279.38;5079375;28;46324;-60
2023/09/06 11:19:32;;;;;;;;;13.00;10.50;;;;;38.95;28.26;101273.78;5095899;27;46421;-58
2023/09/06 11:22:10;;;;;;;;;10.75;9.50;;;;;38.90;27.93;101274.47;5094058;27;45412;-59
2023/09/06 11:24:36;;;;;;;;;11.00;11.00;;;;;38.88;27.72;101267.41;5063852;27;45920;-60
2023/09/06 11:27:15;;;;;;;;;10.00;8.00;;;;;38.93;27.84;101275.94;5090091;27;46461;-59
2023/09/06 11:29:40;;;;;;;;;8.75;8.75;;;;;38.96;27.37;101273.53;5093315;27;45530;-59
2023/09/06 11:32:11;;;;;;;;;7.50;7.25;;;;;39.02;27.38;101265.25;5096293;27;45365;-59
2023/09/06 11:34:44;;;;;;;;;8.50;8.50;;;;;39.04;27.19;101260.25;5090487;27;45616;-59
2023/09/06 11:37:12;;;;;;;;;9.50;9.50;;;;;39.10;27.57;101274.13;5090878;27;46648;-60
2023/09/06 11:39:40;;;;;;;;;10.50;10.50;;;;;39.14;27.08;101268.88;5065446;27;45264;-59
2023/09/06 11:42:10;;;;;;;;;10.50;10.25;;;;;39.16;27.42;101253.50;5092501;27;45421;-59
2023/09/06 11:44:39;;;;;;;;;11.25;11.25;;;;;39.25;27.30;101253.97;5082129;27;46214;-60
2023/09/06 11:47:06;;;;;;;;;11.50;10.25;;;;;39.37;27.05;101249.22;5096901;27;46030;-59
2023/09/06 11:49:34;;;;;;;;;12.00;10.00;;;;;39.44;27.17;101243.47;5082247;27;45287;-59
2023/09/06 11:52:04;;;;;;;;;11.50;10.50;;;;;39.58;27.02;101248.53;5089086;27;45279;-59
2023/09/06 11:54:31;;;;;;;;;11.50;10.50;;;;;39.57;26.82;101244.03;5090518;27;45397;-60
2023/09/06 11:56:57;;;;;;;;;8.00;7.00;;;;;39.68;26.85;101234.72;5090133;27;46349;-59
2023/09/06 11:59:24;;;;;;;;;10.50;10.25;;;;;39.80;26.74;101242.25;5090622;27;45229;-59
2023/09/06 12:01:58;;;;;;;;;8.25;8.25;;;;;39.89;26.04;101238.81;5086403;27;45516;-60
2023/09/06 12:04:26;;;;;;;;;14.25;10.75;;;;;40.03;26.64;101237.38;5079270;27;45304;-59
2023/09/06 12:06:54;;;;;;;;;10.00;10.00;;;;;40.15;26.61;101239.28;5078909;28;46068;-59
2023/09/06 12:09:20;;;;;;;;;8.25;8.25;;;;;40.28;26.41;101239.81;5078961;28;45352;-60
2023/09/06 12:11:45;;;;;;;;;10.75;9.50;;;;;40.40;26.40;101236.94;5079401;27;45282;-59
2023/09/06 12:14:15;;;;;;;;;9.75;9.75;;;;;40.57;26.13;101234.13;5087674;27;45539;-59
2023/09/06 12:16:41;;;;;;;;;10.50;9.50;;;;;40.68;26.12;101227.56;5099649;27;46184;-59
2023/09/06 12:19:15;;;;;;;;;10.00;10.00;;;;;40.73;25.68;101227.66;5099939;27;45500;-59
2023/09/06 12:21:41;;;;;;;;;9.25;8.00;;;;;40.92;25.46;101231.84;5084672;27;45284;-60
2023/09/06 12:24:07;;;;;;;;;9.75;8.75;;;;;41.06;25.71;101224.75;5065850;27;46148;-61
2023/09/06 12:26:33;;;;;;;;;9.25;8.25;;;;;41.13;25.06;101228.25;5096921;27;46150;-59
2023/09/06 12:28:58;;;;;;;;;10.00;10.00;;;;;41.18;25.39;101222.69;5067287;27;45470;-60
2023/09/06 12:31:23;;;;;;;;;9.75;9.50;;;;;41.26;24.80;101229.81;5085678;27;45426;-59
2023/09/06 12:33:51;;;;;;;;;14.25;10.00;;;;;41.34;25.41;101229.38;5078818;27;56584;-60
2023/09/06 12:36:17;;;;;;;;;10.00;10.00;;;;;41.42;24.76;101226.09;5078993;28;45433;-57
2023/09/06 12:38:42;;;;;;;;;11.00;9.75;;;;;41.60;24.46;101224.09;5079061;28;45451;-58
2023/09/06 12:41:08;;;;;;;;;9.25;9.25;;;;;41.79;24.98;101226.25;5086852;27;45504;-59
2023/09/06 12:43:36;;;;;;;;;9.50;9.50;;;;;41.90;24.50;101227.22;5079144;27;45402;-60
2023/09/06 12:46:02;;;;;;;;;7.75;7.75;;;;;41.98;24.69;101228.72;5085971;27;45597;-60
2023/09/06 12:48:28;;;;;;;;;9.25;8.00;;;;;42.08;24.31;101218.41;5098923;27;45351;-59
2023/09/06 12:50:53;;;;;;;;;8.25;8.25;;;;;42.19;24.04;101219.38;5098761;27;45402;-60
2023/09/06 12:53:19;;;;;;;;;10.50;10.25;;;;;42.25;24.13;101218.28;5084194;27;45496;-59
2023/09/06 12:55:47;;;;;;;;;11.00;11.00;;;;;42.37;24.42;101218.09;5077960;27;46322;-59
2023/09/06 12:58:14;;;;;;;;;10.00;9.00;;;;;42.32;24.35;101218.91;5078917;28;45433;-60
2023/09/06 13:00:39;;;;;;;;;9.00;8.75;;;;;42.41;24.21;101208.84;5088035;27;45525;-59
2023/09/06 13:03:06;;;;;;;;;9.50;8.25;;;;;42.43;23.85;101203.81;5092793;27;45403;-59
2023/09/06 13:05:31;;;;;;;;;8.50;8.25;;;;;42.43;23.71;101197.31;5099047;27;45619;-58
2023/09/06 13:07:59;;;;;;;;;11.75;10.25;;;;;42.55;24.02;101201.63;5099035;27;45384;-60
2023/09/06 13:10:25;;;;;;;;;10.25;9.25;;;;;42.57;24.23;101196.56;5098793;27;45334;-59
2023/09/06 13:12:51;;;;;;;;;10.50;10.50;;;;;42.75;24.27;101202.91;5090599;27;45378;-59
2023/09/06 13:15:16;;;;;;;;;9.75;9.75;;;;;42.85;23.39;101195.38;5078540;28;45426;-59
2023/09/06 13:17:42;;;;;;;;;11.25;8.50;;;;;42.87;23.31;101195.94;5082341;27;45365;-59
2023/09/06 13:20:10;;;;;;;;;9.25;9.25;;;;;43.04;23.38;101198.56;5096248;27;48116;-59
2023/09/06 13:22:37;;;;;;;;;14.25;12.00;;;;;43.17;23.58;101192.44;5064475;27;45401;-60
2023/09/06 13:25:02;;;;;;;;;9.00;9.00;;;;;43.36;23.52;101187.16;5082557;27;46229;-60
2023/09/06 13:27:27;;;;;;;;;10.00;9.25;;;;;43.45;23.78;101184.63;5078471;28;45330;-60
2023/09/06 13:29:55;;;;;;;;;9.00;9.00;;;;;43.55;23.04;101181.88;5088691;27;45320;-60
2023/09/06 13:32:20;;;;;;;;;11.75;9.50;;;;;43.61;23.34;101187.25;5080857;28;45533;-60
2023/09/06 13:34:46;;;;;;;;;11.00;9.25;;;;;43.61;22.30;101187.25;5081897;27;45364;-59
2023/09/06 13:37:11;;;;;;;;;9.50;9.00;;;;;43.74;23.25;101181.06;5069607;28;46094;-58
2023/09/06 13:39:37;;;;;;;;;9.25;8.25;;;;;43.88;21.47;101175.72;5097640;27;48243;-59
2023/09/06 13:42:04;;;;;;;;;8.00;7.50;;;;;44.02;22.13;101178.84;5101612;27;60478;-59
2023/09/06 13:44:31;;;;;;;;;9.25;9.25;;;;;44.32;21.83;101172.34;5086139;27;45163;-60
2023/09/06 13:46:58;;;;;;;;;8.25;8.25;;;;;44.35;21.01;101180.28;5081774;27;45307;-59
2023/09/06 13:49:24;;;;;;;;;10.00;9.00;;;;;44.40;21.45;101167.00;5081292;28;45301;-59
2023/09/06 13:51:49;;;;;;;;;13.25;13.00;;;;;44.56;21.47;101172.63;5081800;27;45508;-59
2023/09/06 13:54:15;;;;;;;;;10.75;10.00;;;;;44.66;21.02;101158.47;5081666;27;51597;-58
2023/09/06 13:56:41;;;;;;;;;12.75;11.00;;;;;44.79;21.30;101169.19;5081529;27;45353;-59
2023/09/06 13:59:07;;;;;;;;;10.00;10.00;;;;;44.86;21.27;101162.09;5084767;27;45374;-59
2023/09/06 14:01:33;;;;;;;;;11.00;11.00;;;;;44.99;21.02;101168.28;5081594;28;45272;-59
2023/09/06 14:03:58;;;;;;;;;10.25;9.25;;;;;45.02;21.15;101168.53;5071103;27;52212;-59
2023/09/06 14:06:23;;;;;;;;;8.25;8.25;;;;;45.15;21.40;101167.97;5092922;27;45466;-59
2023/09/06 14:08:49;;;;;;;;;11.50;9.00;;;;;45.28;21.15;101157.13;5081372;28;45277;-59
2023/09/06 14:11:15;;;;;;;;;12.25;11.00;;;;;45.25;20.54;101152.91;5081084;28;50596;-60
2023/09/06 14:13:40;;;;;;;;;9.50;9.50;;;;;45.29;20.25;101156.81;5078727;27;46215;-60
2023/09/06 14:16:08;;;;;;;;;8.00;8.00;;;;;45.40;20.66;101151.97;5102203;27;45394;-61
2023/09/06 14:18:33;;;;;;;;;9.75;8.50;;;;;45.53;20.20;101159.81;5093659;27;45357;-60
2023/09/06 14:20:59;;;;;;;;;5.25;5.25;;;;;45.53;19.59;101149.34;5103385;27;60814;-60
2023/09/06 14:23:24;;;;;;;;;8.00;8.00;;;;;45.69;19.84;101143.56;5074578;27;46134;-60
2023/09/06 14:25:50;;;;;;;;;7.00;7.00;;;;;45.75;19.64;101137.59;5081041;28;52107;-59
2023/09/06 14:28:15;;;;;;;;;9.00;7.00;;;;;45.89;19.71;101144.28;5081589;27;45540;-59
2023/09/06 14:30:42;;;;;;;;;7.75;7.00;;;;;45.96;19.84;101141.97;5092080;27;45373;-59
2023/09/06 14:33:08;;;;;;;;;8.25;7.00;;;;;45.97;18.98;101143.66;5098546;27;46578;-60
2023/09/06 14:35:41;;;;;;;;;5.25;4.25;;;;;46.02;18.74;101139.94;5101731;27;45387;-60
2023/09/06 14:38:08;;;;;;;;;7.50;7.25;;;;;46.08;19.07;101137.91;5101966;27;46433;-59
2023/09/06 14:40:41;;;;;;;;;9.75;8.25;;;;;46.17;19.77;101124.78;5101446;27;45268;-60
2023/09/06 14:43:07;;;;;;;;;7.75;7.75;;;;;46.18;19.54;101123.63;5069883;28;47733;-60
2023/09/06 14:45:33;;;;;;;;;8.50;8.50;;;;;46.35;19.58;101121.22;5081049;27;45311;-59
2023/09/06 14:48:01;;;;;;;;;8.75;7.75;;;;;46.35;19.51;101115.56;5080026;28;45372;-60
2023/09/06 14:50:26;;;;;;;;;7.25;7.25;;;;;46.27;19.46;101114.22;5083215;27;45313;-58
2023/09/06 14:52:52;;;;;;;;;9.00;6.75;;;;;46.23;19.46;101118.78;5080453;27;45322;-59
2023/09/06 14:55:17;;;;;;;;;7.00;7.00;;;;;46.28;19.45;101117.91;5080872;28;45388;-60
2023/09/06 14:57:43;;;;;;;;;9.50;9.00;;;;;46.28;19.67;101124.38;5080940;27;45681;-59
2023/09/06 15:00:09;;;;;;;;;7.50;7.50;;;;;46.31;19.43;101114.44;5084341;27;45446;-59
2023/09/06 15:02:35;;;;;;;;;9.50;8.25;;;;;46.22;19.65;101117.06;5080538;27;46201;-61
2023/09/06 15:05:00;;;;;;;;;10.75;9.25;;;;;46.31;19.80;101115.28;5080717;28;45414;-61
2023/09/06 15:07:26;;;;;;;;;8.50;8.50;;;;;46.40;20.30;101111.78;5080428;27;45365;-62
2023/09/06 15:09:51;;;;;;;;;3.25;3.00;;;;;46.36;19.42;101122.91;5078860;28;45386;-61
2023/09/06 15:12:16;;;;;;;;;7.25;7.25;;;;;46.53;19.38;101122.44;5082601;27;59553;-62
2023/09/06 15:14:41;;;;;;;;;9.75;7.50;;;;;46.54;19.33;101112.75;5100942;27;55213;-62
2023/09/06 15:17:07;;;;;;;;;9.00;9.00;;;;;46.64;19.93;101127.72;5101074;27;45370;-62
2023/09/06 15:19:33;;;;;;;;;9.75;8.25;;;;;46.68;19.20;101114.63;5071750;28;45337;-63
2023/09/06 15:21:59;;;;;;;;;6.50;6.50;;;;;46.77;19.35;101123.31;5080158;27;46061;-61
2023/09/06 15:24:25;;;;;;;;;7.00;7.00;;;;;46.52;18.90;101113.09;5080557;27;45489;-60
2023/09/06 15:26:50;;;;;;;;;7.50;7.50;;;;;46.61;19.14;101110.47;5081749;27;45378;-62
2023/09/06 15:29:17;;;;;;;;;8.75;7.75;;;;;46.64;18.43;101122.03;5089546;27;45493;-61
2023/09/06 15:31:42;;;;;;;;;6.25;6.25;;;;;46.63;19.68;101105.31;5083125;27;46252;-61
2023/09/06 15:34:08;;;;;;;;;8.50;7.25;;;;;46.62;19.12;101112.97;5080206;27;45351;-62
2023/09/06 15:36:33;;;;;;;;;9.50;9.00;;;;;46.73;19.12;101110.88;5083160;27;45276;-62
2023/09/06 15:38:59;;;;;;;;;6.00;6.00;;;;;46.69;18.79;101104.97;5099475;27;46525;-61
2023/09/06 15:41:26;;;;;;;;;6.00;6.00;;;;;46.69;18.24;101107.81;5098134;27;46186;-61
2023/09/06 15:43:52;;;;;;;;;7.00;6.00;;;;;46.61;17.76;101105.63;5070257;28;45871;-61
2023/09/06 15:46:17;;;;;;;;;8.25;7.00;;;;;46.65;18.00;101100.19;5078731;28;45289;-62
2023/09/06 15:48:43;;;;;;;;;5.50;5.50;;;;;46.62;18.39;101106.50;5080124;28;45647;-62
2023/09/06 15:51:08;;;;;;;;;7.50;6.25;;;;;46.63;18.42;101113.81;5078299;27;57134;-62
2023/09/06 15:53:33;;;;;;;;;6.75;5.75;;;;;46.67;18.05;101110.09;5091371;27;45505;-61
2023/09/06 15:55:59;;;;;;;;;7.00;6.00;;;;;46.77;18.06;101099.75;5091880;27;45462;-62
2023/09/06 15:58:24;;;;;;;;;7.50;5.00;;;;;46.89;17.72;101112.34;5079747;28;45260;-63
2023/09/06 16:00:50;;;;;;;;;5.75;5.75;;;;;46.92;17.68;101105.25;5078561;27;45362;-61
2023/09/06 16:03:16;;;;;;;;;4.00;4.00;;;;;46.87;17.49;101103.31;5079235;27;45380;-62
2023/09/06 16:05:41;;;;;;;;;7.75;4.75;;;;;46.84;16.61;101095.41;5079815;28;45430;-62
2023/09/06 16:08:06;;;;;;;;;4.50;4.50;;;;;46.90;16.88;101113.19;5079587;27;45332;-62
2023/09/06 16:10:32;;;;;;;;;2.75;2.75;;;;;46.81;16.22;101100.84;5079210;27;46260;-62
2023/09/06 16:12:58;;;;;;;;;4.25;4.25;;;;;46.77;16.47;101109.13;5079676;27;45466;-62
2023/09/06 16:15:23;;;;;;;;;4.50;3.00;;;;;46.76;16.05;101103.75;5095693;27;45312;-62
2023/09/06 16:17:49;;;;;;;;;4.00;2.00;;;;;46.83;16.20;101104.22;5099995;27;45690;-63
2023/09/06 16:20:15;;;;;;;;;1.00;1.00;;;;;46.78;15.83;101090.94;5098331;27;46186;-62
2023/09/06 16:22:41;;;;;;;;;3.75;3.75;;;;;46.86;16.22;101103.63;5061190;28;45383;-61
2023/09/06 16:25:10;;;;;;;;;4.50;3.00;;;;;46.78;15.78;101093.78;5079290;28;45518;-61
2023/09/06 16:27:36;;;;;;;;;4.00;4.00;;;;;46.81;15.86;101104.50;5078514;27;45343;-63
2023/09/06 16:30:05;;;;;;;;;4.00;4.00;;;;;46.77;15.35;101097.78;5079087;28;45555;-63
2023/09/06 16:32:30;;;;;;;;;3.00;2.00;;;;;46.69;15.82;101098.44;5079305;27;45383;-63
2023/09/06 16:34:56;;;;;;;;;2.50;2.50;;;;;46.66;15.49;101091.38;5079114;28;46511;-63
2023/09/06 16:37:21;;;;;;;;;3.00;3.00;;;;;46.61;15.52;101093.44;5079117;28;53676;-62